Time;durP1;ratioP1;P1;durP2;ratioP2;P2;SDS_P1;SDS_P2;PMS_P1;PMS_P2;Temp;Humidity;BMP_temperature;BMP_pressure;BME280_temperature;BME280_humidity;BME280_pressure;Samples;Min_cycle;Max_cycle;Signal;HPM_P1;HPM_P2
2022/11/28 00:02:15;;;;;;;14.13;7.97;;;;;;;;;;5042328;28;20530;-73
2022/11/28 00:04:41;;;;;;;14.07;6.68;;;;;;;;;;5039598;28;20853;-75
2022/11/28 00:07:10;;;;;;;10.90;7.13;;;;;;;;;;5028201;28;20049;-73
2022/11/28 00:09:36;;;;;;;11.85;7.18;;;;;;;;;;5030034;28;20127;-72
2022/11/28 00:12:02;;;;;;;13.77;7.43;;;;;;;;;;5033123;28;20441;-78
2022/11/28 00:14:28;;;;;;;12.80;7.25;;;;;;;;;;5019398;28;20048;-74
2022/11/28 00:16:53;;;;;;;16.20;6.90;;;;;;;;;;5035142;28;20071;-73
2022/11/28 00:19:20;;;;;;;16.15;7.30;;;;;;;;;;5029965;28;20295;-71
2022/11/28 00:21:46;;;;;;;12.35;6.68;;;;;;;;;;5040290;28;20052;-69
2022/11/28 00:24:12;;;;;;;12.77;7.05;;;;;;;;;;4998576;28;20200;-70
2022/11/28 00:26:40;;;;;;;14.40;7.30;;;;;;;;;;5031309;28;20146;-72
2022/11/28 00:29:07;;;;;;;11.85;7.00;;;;;;;;;;5035564;28;20048;-72
2022/11/28 00:31:40;;;;;;;13.57;7.18;;;;;;;;;;5046059;28;20692;-69
2022/11/28 00:34:12;;;;;;;15.30;7.05;;;;;;;;;;5032649;28;20638;-68
2022/11/28 00:36:38;;;;;;;14.48;7.45;;;;;;;;;;5045339;28;20167;-71
2022/11/28 00:39:05;;;;;;;15.23;7.22;;;;;;;;;;5038079;28;20053;-77
2022/11/28 00:41:32;;;;;;;16.83;7.30;;;;;;;;;;5043512;28;20049;-77
2022/11/28 00:43:58;;;;;;;11.30;7.10;;;;;;;;;;5035140;28;20053;-71
2022/11/28 00:46:24;;;;;;;13.75;7.72;;;;;;;;;;5026507;28;20084;-72
2022/11/28 00:48:51;;;;;;;16.60;7.72;;;;;;;;;;5033397;28;20094;-72
2022/11/28 00:51:20;;;;;;;12.05;7.25;;;;;;;;;;5015057;28;20095;-71
2022/11/28 00:53:48;;;;;;;18.33;7.60;;;;;;;;;;5010862;28;20394;-68
2022/11/28 00:56:17;;;;;;;17.42;7.35;;;;;;;;;;5011410;28;20048;-68
2022/11/28 00:58:43;;;;;;;13.02;7.10;;;;;;;;;;5015611;28;20779;-68
2022/11/28 01:01:13;;;;;;;13.57;7.55;;;;;;;;;;5028321;28;20053;-70
2022/11/28 01:03:39;;;;;;;20.42;7.85;;;;;;;;;;5027613;28;20049;-72
2022/11/28 01:06:06;;;;;;;14.25;7.15;;;;;;;;;;5036692;28;20607;-74
2022/11/28 01:08:32;;;;;;;11.85;6.75;;;;;;;;;;5030510;28;20273;-68
2022/11/28 01:10:58;;;;;;;13.15;6.45;;;;;;;;;;5033014;28;20055;-71
2022/11/28 01:13:25;;;;;;;13.52;7.03;;;;;;;;;;5028607;28;20166;-68
2022/11/28 01:15:51;;;;;;;13.10;6.85;;;;;;;;;;5007914;28;20053;-69
2022/11/28 01:18:17;;;;;;;13.23;6.63;;;;;;;;;;5009431;28;20120;-68
2022/11/28 01:20:43;;;;;;;19.67;7.00;;;;;;;;;;4975859;28;20457;-72
2022/11/28 01:23:09;;;;;;;10.38;6.28;;;;;;;;;;4998014;28;20511;-70
2022/11/28 01:25:34;;;;;;;11.05;6.45;;;;;;;;;;4996169;28;20050;-73
2022/11/28 01:28:00;;;;;;;13.98;6.40;;;;;;;;;;4998826;28;20077;-72
2022/11/28 01:30:27;;;;;;;11.00;6.32;;;;;;;;;;4989189;28;20046;-78
2022/11/28 01:32:53;;;;;;;14.10;6.88;;;;;;;;;;4995171;28;20054;-71
2022/11/28 01:35:18;;;;;;;11.60;6.40;;;;;;;;;;4996128;28;20097;-74
2022/11/28 01:37:44;;;;;;;12.55;6.60;;;;;;;;;;4991004;28;20057;-68
2022/11/28 01:40:13;;;;;;;14.95;6.78;;;;;;;;;;4991475;28;20068;-67
2022/11/28 01:42:39;;;;;;;14.00;6.22;;;;;;;;;;4997562;28;20440;-72
2022/11/28 01:45:15;;;;;;;10.00;5.70;;;;;;;;;;5017183;28;20045;-74
2022/11/28 01:47:41;;;;;;;10.45;5.75;;;;;;;;;;4997470;28;20311;-72
2022/11/28 01:50:08;;;;;;;12.23;6.07;;;;;;;;;;4988752;28;20140;-70
2022/11/28 01:52:38;;;;;;;10.55;5.78;;;;;;;;;;5000172;28;20049;-77
2022/11/28 01:55:05;;;;;;;9.23;5.38;;;;;;;;;;4993743;28;20053;-77
2022/11/28 01:57:32;;;;;;;8.98;5.20;;;;;;;;;;4985015;28;20068;-72
2022/11/28 02:00:11;;;;;;;9.38;5.45;;;;;;;;;;4976057;28;20188;-78
2022/11/28 02:02:40;;;;;;;8.90;5.07;;;;;;;;;;5000630;28;20108;-72
2022/11/28 02:05:07;;;;;;;10.82;5.40;;;;;;;;;;4995439;28;20124;-77
2022/11/28 02:07:34;;;;;;;12.55;5.80;;;;;;;;;;4978704;28;20131;-68
2022/11/28 02:10:02;;;;;;;9.52;5.40;;;;;;;;;;4980072;28;20720;-72
2022/11/28 02:13:01;;;;;;;9.70;4.97;;;;;;;;;;4994412;28;20049;-73
2022/11/28 02:16:05;;;;;;;7.88;4.95;;;;;;;;;;4990559;28;20050;-76
2022/11/28 02:19:17;;;;;;;8.85;5.55;;;;;;;;;;4994656;28;20070;-72
2022/11/28 02:22:20;;;;;;;9.50;5.60;;;;;;;;;;4954493;28;20496;-72
2022/11/28 02:24:46;;;;;;;9.57;5.80;;;;;;;;;;4978397;28;20041;-74
2022/11/28 02:27:21;;;;;;;11.75;5.25;;;;;;;;;;4972375;28;20615;-72
2022/11/28 02:30:05;;;;;;;7.60;4.78;;;;;;;;;;4964114;28;20061;-76
2022/11/28 02:32:46;;;;;;;9.13;4.53;;;;;;;;;;4973727;28;20448;-79
2022/11/28 02:35:19;;;;;;;10.82;4.80;;;;;;;;;;4969815;28;20156;-72
2022/11/28 02:38:03;;;;;;;9.32;4.50;;;;;;;;;;4965529;28;20246;-69
2022/11/28 02:40:44;;;;;;;8.23;4.60;;;;;;;;;;4962592;28;20053;-73
2022/11/28 02:43:39;;;;;;;9.32;4.90;;;;;;;;;;4970576;28;20507;-71
2022/11/28 02:46:08;;;;;;;9.15;4.40;;;;;;;;;;4960774;28;20061;-74
2022/11/28 02:49:07;;;;;;;7.60;4.40;;;;;;;;;;4971403;28;20127;-72
2022/11/28 02:52:05;;;;;;;12.38;4.57;;;;;;;;;;4974973;28;20073;-75
2022/11/28 02:54:31;;;;;;;10.32;4.85;;;;;;;;;;4972436;28;20049;-70
2022/11/28 02:56:58;;;;;;;9.07;4.03;;;;;;;;;;4998165;28;20053;-76
2022/11/28 02:59:35;;;;;;;6.57;3.90;;;;;;;;;;4989204;28;20083;-75
2022/11/28 03:02:22;;;;;;;7.25;3.63;;;;;;;;;;4984678;28;20818;-70
2022/11/28 03:05:10;;;;;;;5.75;3.22;;;;;;;;;;4997207;28;20037;-80
2022/11/28 03:07:58;;;;;;;6.28;3.25;;;;;;;;;;4994178;28;20292;-81
2022/11/28 03:11:06;;;;;;;5.63;3.30;;;;;;;;;;4988307;28;20065;-82
2022/11/28 03:13:53;;;;;;;4.93;3.17;;;;;;;;;;4934543;28;20058;-72
2022/11/28 03:16:21;;;;;;;4.60;2.80;;;;;;;;;;4939632;28;20534;-70
2022/11/28 03:19:17;;;;;;;4.68;3.00;;;;;;;;;;4922634;28;20639;-72
2022/11/28 03:21:47;;;;;;;;;;;;;;;;;;4939146;28;20065;-75
2022/11/28 03:24:42;;;;;;;5.85;2.85;;;;;;;;;;4936641;28;19926;-74
2022/11/28 03:27:17;;;;;;;3.77;2.43;;;;;;;;;;4930748;28;20083;-84
2022/11/28 03:29:51;;;;;;;5.97;2.90;;;;;;;;;;4930477;28;20401;-77
2022/11/28 03:32:30;;;;;;;8.48;3.22;;;;;;;;;;4935001;28;20057;-70
2022/11/28 03:35:07;;;;;;;6.32;3.25;;;;;;;;;;4935904;28;20059;-71
2022/11/28 03:37:38;;;;;;;7.53;3.28;;;;;;;;;;4917787;28;20664;-70
2022/11/28 03:40:09;;;;;;;6.57;3.28;;;;;;;;;;4900623;28;20126;-68
2022/11/28 03:42:40;;;;;;;7.53;3.38;;;;;;;;;;4917802;28;20048;-73
2022/11/28 03:45:33;;;;;;;4.82;3.05;;;;;;;;;;4934019;28;20082;-69
2022/11/28 03:48:08;;;;;;;9.48;3.55;;;;;;;;;;4935396;28;20073;-76
2022/11/28 03:50:49;;;;;;;6.68;3.70;;;;;;;;;;4987871;28;20054;-72
2022/11/28 03:53:25;;;;;;;6.35;3.42;;;;;;;;;;4996090;28;20061;-71
2022/11/28 03:56:01;;;;;;;9.38;3.88;;;;;;;;;;4997960;28;20042;-69
2022/11/28 03:58:33;;;;;;;7.63;3.60;;;;;;;;;;4976604;28;20085;-73
2022/11/28 04:01:08;;;;;;;9.38;3.70;;;;;;;;;;4988428;28;20630;-72
2022/11/28 04:03:49;;;;;;;7.22;4.03;;;;;;;;;;4996233;28;20140;-78
2022/11/28 04:06:22;;;;;;;6.93;3.60;;;;;;;;;;4997904;28;20068;-76
2022/11/28 04:08:56;;;;;;;8.23;3.97;;;;;;;;;;4997910;28;20325;-73
2022/11/28 04:11:32;;;;;;;7.03;3.80;;;;;;;;;;5000120;28;20049;-66
2022/11/28 04:14:11;;;;;;;5.90;3.67;;;;;;;;;;4998844;28;20133;-69
2022/11/28 04:16:43;;;;;;;7.68;3.72;;;;;;;;;;4987043;28;20107;-81
2022/11/28 04:19:19;;;;;;;7.43;4.13;;;;;;;;;;5007193;28;20060;-75
2022/11/28 04:22:14;;;;;;;7.63;3.45;;;;;;;;;;5041952;28;20045;-69
2022/11/28 04:24:55;;;;;;;6.97;3.33;;;;;;;;;;5044656;28;20055;-74
2022/11/28 04:27:29;;;;;;;5.93;3.53;;;;;;;;;;5035029;28;20072;-78
2022/11/28 04:30:00;;;;;;;5.93;3.78;;;;;;;;;;5017755;28;20083;-70
2022/11/28 04:32:29;;;;;;;5.15;3.25;;;;;;;;;;5029161;28;20912;-72
2022/11/28 04:35:01;;;;;;;4.05;2.80;;;;;;;;;;5034971;28;20103;-73
2022/11/28 04:37:29;;;;;;;5.95;2.83;;;;;;;;;;5038048;28;20052;-77
2022/11/28 04:39:55;;;;;;;4.75;3.20;;;;;;;;;;5036838;28;20054;-70
2022/11/28 04:42:39;;;;;;;6.75;3.28;;;;;;;;;;5036285;28;20057;-68
2022/11/28 04:45:10;;;;;;;6.15;3.00;;;;;;;;;;5040686;28;20729;-75
2022/11/28 04:47:36;;;;;;;4.70;3.08;;;;;;;;;;5039465;28;20056;-74
2022/11/28 04:50:03;;;;;;;6.38;2.90;;;;;;;;;;5042474;28;20051;-77
2022/11/28 04:52:41;;;;;;;6.43;3.10;;;;;;;;;;5043967;28;20048;-74
2022/11/28 04:55:15;;;;;;;5.50;3.22;;;;;;;;;;5047421;28;20073;-76
2022/11/28 04:57:45;;;;;;;6.75;2.97;;;;;;;;;;5044235;28;20482;-75
2022/11/28 05:00:16;;;;;;;5.65;2.92;;;;;;;;;;5037170;28;21171;-70
2022/11/28 05:02:45;;;;;;;4.05;2.85;;;;;;;;;;5008801;28;20481;-69
2022/11/28 05:05:17;;;;;;;3.47;2.10;;;;;;;;;;5021965;28;21510;-72
2022/11/28 05:07:43;;;;;;;6.15;2.58;;;;;;;;;;5041359;28;20059;-69
2022/11/28 05:10:11;;;;;;;4.88;2.63;;;;;;;;;;5037968;28;20048;-74
2022/11/28 05:12:37;;;;;;;4.30;2.38;;;;;;;;;;5031267;28;20057;-76
2022/11/28 05:15:04;;;;;;;7.72;2.97;;;;;;;;;;5018638;28;20053;-77
2022/11/28 05:17:30;;;;;;;5.45;2.28;;;;;;;;;;5015995;28;20049;-73
2022/11/28 05:19:55;;;;;;;7.20;2.47;;;;;;;;;;5029082;28;20068;-77
2022/11/28 05:22:22;;;;;;;4.07;2.22;;;;;;;;;;5037939;28;20121;-76
2022/11/28 05:24:48;;;;;;;6.25;2.42;;;;;;;;;;5037219;28;20041;-66
2022/11/28 05:27:14;;;;;;;3.42;2.22;;;;;;;;;;5038650;28;20056;-68
2022/11/28 05:29:42;;;;;;;6.97;2.20;;;;;;;;;;5022386;28;20132;-73
2022/11/28 05:32:09;;;;;;;7.43;2.45;;;;;;;;;;5018399;28;20045;-71
2022/11/28 05:34:35;;;;;;;4.43;2.10;;;;;;;;;;5036660;28;20051;-76
2022/11/28 05:37:01;;;;;;;6.00;2.65;;;;;;;;;;5024672;28;20596;-76
2022/11/28 05:39:27;;;;;;;4.35;2.30;;;;;;;;;;5024822;28;20049;-74
2022/11/28 05:41:57;;;;;;;4.32;2.58;;;;;;;;;;5034016;28;20047;-68
2022/11/28 05:44:23;;;;;;;7.70;2.28;;;;;;;;;;5037331;28;20469;-69
2022/11/28 05:46:49;;;;;;;4.38;2.20;;;;;;;;;;5030546;28;20084;-70
2022/11/28 05:49:15;;;;;;;4.90;2.30;;;;;;;;;;5026649;28;20604;-75
2022/11/28 05:51:41;;;;;;;6.25;2.40;;;;;;;;;;5033692;28;20660;-69
2022/11/28 05:54:07;;;;;;;5.15;2.63;;;;;;;;;;5029328;28;20063;-73
2022/11/28 05:56:33;;;;;;;4.53;2.08;;;;;;;;;;5012485;28;20056;-72
2022/11/28 05:58:59;;;;;;;5.22;2.42;;;;;;;;;;5024558;28;20056;-71
2022/11/28 06:01:27;;;;;;;9.07;2.30;;;;;;;;;;5010659;28;20070;-73
2022/11/28 06:03:59;;;;;;;6.25;2.58;;;;;;;;;;5024508;28;20049;-67
2022/11/28 06:06:30;;;;;;;5.07;2.30;;;;;;;;;;5027148;28;20041;-72
2022/11/28 06:08:56;;;;;;;7.47;3.13;;;;;;;;;;5027230;28;20052;-68
2022/11/28 06:11:24;;;;;;;4.43;2.75;;;;;;;;;;5030562;28;20071;-72
2022/11/28 06:13:50;;;;;;;4.82;2.58;;;;;;;;;;5033757;28;20044;-75
2022/11/28 06:16:19;;;;;;;5.60;2.53;;;;;;;;;;5028950;28;20513;-72
2022/11/28 06:18:45;;;;;;;6.00;2.42;;;;;;;;;;5014840;28;20044;-70
2022/11/28 06:21:13;;;;;;;7.40;2.67;;;;;;;;;;5010884;28;20068;-72
2022/11/28 06:23:39;;;;;;;5.75;2.13;;;;;;;;;;5015978;28;20127;-74
2022/11/28 06:26:11;;;;;;;4.13;2.05;;;;;;;;;;5029070;28;20071;-71
2022/11/28 06:28:38;;;;;;;3.38;1.70;;;;;;;;;;5027566;28;20080;-74
2022/11/28 06:31:09;;;;;;;6.30;2.25;;;;;;;;;;5028275;28;20056;-74
2022/11/28 06:33:35;;;;;;;4.05;1.58;;;;;;;;;;5027413;28;20599;-75
2022/11/28 06:36:03;;;;;;;3.53;1.63;;;;;;;;;;5026003;28;20060;-72
2022/11/28 06:38:29;;;;;;;1.63;1.27;;;;;;;;;;5017433;28;20057;-75
2022/11/28 06:41:01;;;;;;;5.38;1.33;;;;;;;;;;5025584;28;20080;-72
2022/11/28 06:43:27;;;;;;;3.97;1.33;;;;;;;;;;5024701;28;20734;-74
2022/11/28 06:45:53;;;;;;;4.70;1.40;;;;;;;;;;5034833;28;20053;-73
2022/11/28 06:48:19;;;;;;;4.05;1.20;;;;;;;;;;5024575;28;20259;-71
2022/11/28 06:50:45;;;;;;;2.15;1.02;;;;;;;;;;5021429;28;20053;-71
2022/11/28 06:53:12;;;;;;;3.08;1.20;;;;;;;;;;5028017;28;22527;-74
2022/11/28 06:55:38;;;;;;;3.60;1.10;;;;;;;;;;5010503;28;20072;-71
2022/11/28 06:58:04;;;;;;;3.88;1.00;;;;;;;;;;5029811;28;20055;-74
2022/11/28 07:00:30;;;;;;;1.00;0.75;;;;;;;;;;5024415;28;20053;-70
2022/11/28 07:02:57;;;;;;;4.15;1.02;;;;;;;;;;5014676;28;20048;-70
2022/11/28 07:05:26;;;;;;;1.10;1.00;;;;;;;;;;5027046;28;20370;-73
2022/11/28 07:07:53;;;;;;;1.83;0.90;;;;;;;;;;5027296;28;20073;-70
2022/11/28 07:10:20;;;;;;;2.45;0.90;;;;;;;;;;5026729;28;20068;-70
2022/11/28 07:12:45;;;;;;;2.10;1.15;;;;;;;;;;5012376;28;20072;-70
2022/11/28 07:15:12;;;;;;;1.40;1.05;;;;;;;;;;5018972;28;20473;-70
2022/11/28 07:17:38;;;;;;;3.03;1.30;;;;;;;;;;5026574;28;20094;-72
2022/11/28 07:32:12;;;;;;;3.10;1.15;;;;;;;;;;5022139;28;20398;-70
2022/11/28 07:34:40;;;;;;;10.85;1.70;;;;;;;;;;4999974;28;20053;-69
2022/11/28 07:37:06;;;;;;;3.38;1.00;;;;;;;;;;4998785;28;20041;-71
2022/11/28 07:39:32;;;;;;;3.33;0.88;;;;;;;;;;5009611;28;20053;-70
2022/11/28 07:41:58;;;;;;;4.22;1.10;;;;;;;;;;5017283;28;20073;-71
2022/11/28 07:44:24;;;;;;;1.20;1.00;;;;;;;;;;5001486;28;20487;-70
2022/11/28 07:46:50;;;;;;;6.00;1.40;;;;;;;;;;5029186;28;20059;-71
2022/11/28 07:49:16;;;;;;;9.77;1.60;;;;;;;;;;5025020;28;20463;-70
2022/11/28 07:51:41;;;;;;;3.88;1.42;;;;;;;;;;5027169;28;20387;-69
2022/11/28 07:54:08;;;;;;;3.65;1.25;;;;;;;;;;5009348;28;20743;-69
2022/11/28 07:56:36;;;;;;;6.75;1.40;;;;;;;;;;5024677;28;20504;-72
2022/11/28 07:59:03;;;;;;;6.38;1.10;;;;;;;;;;5022271;28;20049;-71
2022/11/28 08:01:34;;;;;;;8.02;1.80;;;;;;;;;;5024095;28;20061;-73
2022/11/28 08:04:02;;;;;;;7.32;1.27;;;;;;;;;;5021631;28;20103;-69
2022/11/28 08:06:29;;;;;;;3.65;1.23;;;;;;;;;;5027731;28;20414;-69
2022/11/28 08:08:58;;;;;;;9.48;1.17;;;;;;;;;;5022775;28;20053;-70
2022/11/28 08:11:27;;;;;;;6.57;1.67;;;;;;;;;;5025094;28;20069;-71
2022/11/28 08:13:53;;;;;;;2.17;1.20;;;;;;;;;;5026035;28;20076;-71
2022/11/28 08:16:21;;;;;;;2.33;0.90;;;;;;;;;;5021774;28;20528;-71
2022/11/28 08:18:48;;;;;;;3.25;0.90;;;;;;;;;;5020259;28;20353;-71
2022/11/28 08:21:19;;;;;;;5.90;1.35;;;;;;;;;;5021428;28;20052;-72
2022/11/28 08:23:46;;;;;;;6.07;1.10;;;;;;;;;;5023431;28;20053;-72
2022/11/28 08:26:14;;;;;;;3.63;0.80;;;;;;;;;;5011601;28;20144;-71
2022/11/28 08:28:42;;;;;;;3.75;1.15;;;;;;;;;;5020861;28;20057;-71
2022/11/28 08:31:17;;;;;;;3.72;1.10;;;;;;;;;;5028550;28;20570;-71
2022/11/28 08:33:45;;;;;;;4.30;1.40;;;;;;;;;;5016304;28;20081;-72
2022/11/28 08:36:13;;;;;;;6.45;1.10;;;;;;;;;;5015291;28;20084;-72
2022/11/28 08:38:40;;;;;;;4.65;1.20;;;;;;;;;;5011535;28;20083;-70
2022/11/28 08:41:09;;;;;;;2.60;1.10;;;;;;;;;;4998146;28;20093;-70
2022/11/28 08:43:36;;;;;;;6.60;1.60;;;;;;;;;;5016278;28;20512;-71
2022/11/28 08:46:04;;;;;;;5.10;1.40;;;;;;;;;;5012683;28;20055;-70
2022/11/28 08:48:31;;;;;;;4.85;1.25;;;;;;;;;;5009817;28;20061;-72
2022/11/28 08:50:57;;;;;;;4.53;1.27;;;;;;;;;;5013108;28;20054;-71
2022/11/28 08:53:23;;;;;;;4.90;1.45;;;;;;;;;;5011548;28;20053;-71
2022/11/28 08:55:49;;;;;;;2.40;1.25;;;;;;;;;;5010957;28;20484;-75
2022/11/28 08:58:15;;;;;;;3.47;1.38;;;;;;;;;;5011862;28;20041;-61
2022/11/28 09:00:41;;;;;;;3.65;0.90;;;;;;;;;;5003047;28;20053;-70
2022/11/28 09:03:13;;;;;;;7.25;1.48;;;;;;;;;;5009665;28;20100;-73
2022/11/28 09:05:41;;;;;;;2.38;0.85;;;;;;;;;;4993004;28;20551;-71
2022/11/28 09:08:08;;;;;;;3.42;1.08;;;;;;;;;;5015201;28;21076;-72
2022/11/28 09:10:38;;;;;;;2.95;0.90;;;;;;;;;;5008011;28;20076;-73
2022/11/28 09:13:05;;;;;;;7.32;1.10;;;;;;;;;;5013111;28;20049;-68
2022/11/28 09:15:31;;;;;;;4.60;1.17;;;;;;;;;;5013015;28;20110;-69
2022/11/28 09:17:58;;;;;;;3.88;1.13;;;;;;;;;;4998292;28;20549;-68
2022/11/28 09:20:24;;;;;;;2.92;1.05;;;;;;;;;;5003757;28;20049;-67
2022/11/28 09:22:50;;;;;;;4.60;0.95;;;;;;;;;;5007268;28;20054;-70
2022/11/28 09:25:16;;;;;;;7.60;1.40;;;;;;;;;;5008313;28;20068;-66
2022/11/28 09:27:42;;;;;;;4.30;0.80;;;;;;;;;;5008216;28;20052;-70
2022/11/28 09:30:09;;;;;;;7.63;1.10;;;;;;;;;;5008480;28;20633;-72
2022/11/28 09:32:35;;;;;;;6.20;1.15;;;;;;;;;;5007316;28;20049;-72
2022/11/28 09:35:01;;;;;;;5.18;0.80;;;;;;;;;;5008308;28;20902;-71
2022/11/28 09:37:28;;;;;;;1.15;0.70;;;;;;;;;;5002664;28;20053;-70
2022/11/28 09:39:54;;;;;;;1.52;0.70;;;;;;;;;;5002728;28;20316;-71
2022/11/28 09:42:33;;;;;;;2.17;1.00;;;;;;;;;;5006789;28;20053;-70
2022/11/28 09:45:09;;;;;;;5.05;1.15;;;;;;;;;;5003975;28;20053;-71
2022/11/28 09:47:37;;;;;;;3.35;1.23;;;;;;;;;;4989380;28;20057;-74
2022/11/28 09:50:09;;;;;;;6.70;1.00;;;;;;;;;;5005140;28;20805;-70
2022/11/28 09:52:54;;;;;;;5.30;0.80;;;;;;;;;;4988276;28;20057;-69
2022/11/28 09:55:38;;;;;;;8.73;1.05;;;;;;;;;;5007649;28;20208;-69
2022/11/28 09:58:23;;;;;;;2.42;1.10;;;;;;;;;;5010286;28;20257;-69
2022/11/28 10:01:03;;;;;;;;;;;;;;;;;;5011481;28;20103;-69
2022/11/28 10:03:54;;;;;;;3.15;0.85;;;;;;;;;;5009083;28;20197;-70
2022/11/28 10:06:39;;;;;;;3.90;1.08;;;;;;;;;;5012747;28;20504;-68
2022/11/28 10:09:12;;;;;;;3.67;1.00;;;;;;;;;;5009999;28;20049;-69
2022/11/28 10:12:18;;;;;;;3.30;1.70;;;;;;;;;;5011582;28;20069;-68
2022/11/28 10:15:21;;;;;;;5.10;0.98;;;;;;;;;;5012499;28;20241;-71
2022/11/28 10:18:07;;;;;;;3.10;1.00;;;;;;;;;;5012666;28;21688;-73
2022/11/28 10:20:38;;;;;;;2.67;0.68;;;;;;;;;;4991467;28;20479;-69
2022/11/28 10:23:15;;;;;;;6.22;0.88;;;;;;;;;;5010642;28;20056;-70
2022/11/28 10:25:47;;;;;;;0.95;0.68;;;;;;;;;;5010583;28;20071;-71
2022/11/28 10:28:18;;;;;;;4.03;0.82;;;;;;;;;;5010313;28;21389;-68
2022/11/28 10:30:51;;;;;;;2.22;0.73;;;;;;;;;;5009784;28;20064;-70
2022/11/28 10:33:24;;;;;;;5.72;0.90;;;;;;;;;;5011285;28;20053;-69
2022/11/28 10:35:55;;;;;;;1.95;1.27;;;;;;;;;;5012318;28;20060;-68
2022/11/28 10:38:26;;;;;;;3.05;0.90;;;;;;;;;;5006412;28;20117;-68
2022/11/28 10:41:09;;;;;;;4.10;0.90;;;;;;;;;;5012614;28;20041;-67
2022/11/28 10:43:46;;;;;;;4.72;1.27;;;;;;;;;;5012828;28;20060;-68
2022/11/28 10:46:31;;;;;;;6.03;1.00;;;;;;;;;;5013755;28;20045;-67
2022/11/28 10:48:59;;;;;;;2.75;0.75;;;;;;;;;;5008935;28;20053;-70
2022/11/28 10:51:55;;;;;;;3.38;0.90;;;;;;;;;;5010945;28;20482;-67
2022/11/28 10:55:04;;;;;;;2.05;0.93;;;;;;;;;;4996520;28;20053;-68
2022/11/28 10:57:50;;;;;;;3.55;1.08;;;;;;;;;;5009394;28;20161;-67
2022/11/28 11:00:18;;;;;;;3.28;0.68;;;;;;;;;;5002569;28;20046;-66
2022/11/28 11:02:45;;;;;;;7.32;1.10;;;;;;;;;;4988564;28;20815;-67
2022/11/28 11:05:17;;;;;;;4.38;0.88;;;;;;;;;;5012405;28;20942;-68
2022/11/28 11:08:24;;;;;;;5.90;0.85;;;;;;;;;;5011060;28;20529;-70
2022/11/28 11:11:02;;;;;;;1.67;0.88;;;;;;;;;;4990443;28;20063;-67
2022/11/28 11:13:31;;;;;;;4.63;1.10;;;;;;;;;;5011552;28;20053;-69
2022/11/28 11:15:59;;;;;;;1.52;0.95;;;;;;;;;;5010593;28;20072;-68
2022/11/28 11:18:31;;;;;;;8.20;1.67;;;;;;;;;;5009250;28;20053;-67
2022/11/28 11:21:06;;;;;;;2.03;1.40;;;;;;;;;;5010015;28;20076;-66
2022/11/28 11:23:32;;;;;;;2.00;0.75;;;;;;;;;;5007184;28;20053;-71
2022/11/28 11:25:59;;;;;;;3.58;1.00;;;;;;;;;;5011373;28;20049;-67
2022/11/28 11:28:31;;;;;;;5.68;0.88;;;;;;;;;;5008973;28;20483;-70
2022/11/28 11:30:59;;;;;;;2.83;0.77;;;;;;;;;;5009686;28;20534;-70
2022/11/28 11:33:31;;;;;;;4.22;0.93;;;;;;;;;;4992267;28;20060;-68
2022/11/28 11:35:57;;;;;;;10.10;1.30;;;;;;;;;;4995391;28;20052;-67
2022/11/28 11:38:32;;;;;;;7.10;0.98;;;;;;;;;;5015203;28;20049;-70
2022/11/28 11:41:19;;;;;;;2.47;0.90;;;;;;;;;;5009883;28;20137;-66
2022/11/28 11:43:45;;;;;;;2.88;0.90;;;;;;;;;;5011258;28;20053;-68
2022/11/28 11:46:15;;;;;;;3.05;0.75;;;;;;;;;;5009730;28;20065;-68
2022/11/28 11:48:47;;;;;;;2.42;0.80;;;;;;;;;;5006915;28;20319;-70
2022/11/28 11:51:25;;;;;;;3.38;0.77;;;;;;;;;;5009148;28;20172;-71
2022/11/28 11:54:16;;;;;;;4.00;1.00;;;;;;;;;;5011192;28;20142;-67
2022/11/28 11:56:45;;;;;;;2.08;0.80;;;;;;;;;;5009547;28;20416;-68
2022/11/28 11:59:44;;;;;;;1.02;0.82;;;;;;;;;;5010051;28;20057;-69
2022/11/28 12:02:27;;;;;;;1.58;0.50;;;;;;;;;;4996341;28;20088;-65
2022/11/28 12:05:17;;;;;;;2.22;0.90;;;;;;;;;;5010036;28;20141;-71
2022/11/28 12:07:49;;;;;;;3.63;0.80;;;;;;;;;;5002155;28;20053;-67
2022/11/28 12:10:20;;;;;;;1.75;0.88;;;;;;;;;;5011350;28;20088;-72
2022/11/28 12:12:45;;;;;;;1.67;0.70;;;;;;;;;;5014493;28;20046;-69
2022/11/28 12:15:41;;;;;;;2.45;1.00;;;;;;;;;;5012657;28;20463;-67
2022/11/28 12:18:15;;;;;;;6.85;0.80;;;;;;;;;;4928202;28;20107;-66
2022/11/28 12:20:57;;;;;;;7.13;0.82;;;;;;;;;;4921624;29;20125;-66
2022/11/28 12:24:02;;;;;;;2.22;0.80;;;;;;;;;;4933319;29;20047;-70
2022/11/28 12:26:34;;;;;;;6.15;0.90;;;;;;;;;;4933418;28;20043;-69
2022/11/28 12:29:06;;;;;;;3.72;0.70;;;;;;;;;;4930609;28;20135;-69
2022/11/28 12:32:02;;;;;;;3.15;0.80;;;;;;;;;;4932045;28;20458;-67
2022/11/28 12:34:47;;;;;;;6.15;0.63;;;;;;;;;;4931097;29;20143;-67
2022/11/28 12:37:28;;;;;;;;;;;;;;;;;;4930199;28;20150;-69
2022/11/28 12:40:31;;;;;;;4.43;0.70;;;;;;;;;;4926383;28;19927;-65
2022/11/28 12:43:36;;;;;;;5.03;1.25;;;;;;;;;;4913553;29;20297;-67
2022/11/28 12:46:26;;;;;;;3.90;0.60;;;;;;;;;;4919718;28;20600;-69
2022/11/28 12:49:28;;;;;;;3.97;0.82;;;;;;;;;;4928307;29;20161;-69
2022/11/28 12:52:15;;;;;;;6.32;0.90;;;;;;;;;;4928043;28;20493;-70
2022/11/28 12:55:03;;;;;;;5.95;1.10;;;;;;;;;;4956040;28;20081;-66
2022/11/28 12:58:01;;;;;;;3.75;0.82;;;;;;;;;;4996834;28;20053;-68
2022/11/28 13:00:28;;;;;;;6.50;0.90;;;;;;;;;;4990336;28;20506;-68
2022/11/28 13:03:06;;;;;;;4.55;0.98;;;;;;;;;;5012908;28;20068;-67
2022/11/28 13:05:46;;;;;;;3.05;0.85;;;;;;;;;;4992729;28;20061;-67
2022/11/28 13:08:12;;;;;;;3.55;0.90;;;;;;;;;;5005742;28;20557;-67
2022/11/28 13:10:56;;;;;;;2.08;0.85;;;;;;;;;;5007887;28;20057;-68
2022/11/28 13:13:25;;;;;;;;;;;;;;;;;;4994722;28;20049;-68
2022/11/28 13:15:57;;;;;;;0.65;0.40;;;;;;;;;;4985646;28;19929;-72
2022/11/28 13:19:24;;;;;;;1.40;0.70;;;;;;;;;;5009730;28;20052;-67
2022/11/28 13:22:14;;;;;;;3.65;1.23;;;;;;;;;;4915097;28;20059;-65
2022/11/28 13:25:07;;;;;;;1.67;0.70;;;;;;;;;;4925131;29;20083;-66
2022/11/28 13:27:42;;;;;;;1.77;0.80;;;;;;;;;;4923552;29;20063;-68
2022/11/28 13:30:21;;;;;;;3.10;1.00;;;;;;;;;;4923638;28;20415;-69
2022/11/28 13:33:06;;;;;;;2.88;0.70;;;;;;;;;;4924866;29;20481;-68
2022/11/28 13:35:33;;;;;;;10.20;1.00;;;;;;;;;;4925659;28;20055;-67
2022/11/28 13:38:25;;;;;;;2.33;1.30;;;;;;;;;;4926341;29;20051;-70
2022/11/28 13:41:03;;;;;;;3.55;0.80;;;;;;;;;;4914701;28;20132;-70
2022/11/28 13:44:17;;;;;;;3.15;1.13;;;;;;;;;;4923408;28;20146;-69
2022/11/28 13:46:44;;;;;;;2.53;1.05;;;;;;;;;;4874926;29;20232;-67
2022/11/28 13:49:36;;;;;;;2.05;0.73;;;;;;;;;;4874905;29;20717;-67
2022/11/28 13:52:17;;;;;;;4.00;0.93;;;;;;;;;;4889130;29;20150;-69
2022/11/28 13:54:44;;;;;;;6.07;1.20;;;;;;;;;;4914200;28;20057;-69
2022/11/28 13:57:15;;;;;;;7.75;1.23;;;;;;;;;;4914846;28;20059;-73
2022/11/28 13:59:48;;;;;;;3.28;0.80;;;;;;;;;;4915713;29;20641;-66
2022/11/28 14:02:33;;;;;;;2.63;0.90;;;;;;;;;;4911765;28;20139;-66
2022/11/28 14:05:01;;;;;;;3.80;1.10;;;;;;;;;;4895946;29;20055;-67
2022/11/28 14:07:30;;;;;;;2.35;0.82;;;;;;;;;;4912298;28;20523;-67
2022/11/28 14:10:10;;;;;;;4.68;0.90;;;;;;;;;;4910166;28;21086;-65
2022/11/28 14:13:14;;;;;;;3.00;0.90;;;;;;;;;;4914068;29;20104;-68
2022/11/28 14:15:53;;;;;;;2.33;0.80;;;;;;;;;;4914916;28;20090;-66
2022/11/28 14:18:36;;;;;;;8.05;1.10;;;;;;;;;;4985667;28;20575;-65
2022/11/28 14:21:23;;;;;;;5.25;1.10;;;;;;;;;;5001691;28;20057;-67
2022/11/28 14:24:14;;;;;;;10.25;1.10;;;;;;;;;;5001741;28;20049;-67
2022/11/28 14:26:42;;;;;;;4.00;1.40;;;;;;;;;;4999551;28;20057;-65
2022/11/28 14:29:23;;;;;;;4.43;1.00;;;;;;;;;;5000963;28;20812;-68
2022/11/28 14:31:55;;;;;;;4.68;1.05;;;;;;;;;;4985102;28;20092;-67
2022/11/28 14:34:39;;;;;;;1.42;0.80;;;;;;;;;;5001444;28;20081;-67
2022/11/28 14:37:20;;;;;;;3.65;1.00;;;;;;;;;;5002022;28;20057;-69
2022/11/28 14:39:48;;;;;;;10.77;1.10;;;;;;;;;;5001249;28;20049;-67
2022/11/28 14:42:14;;;;;;;4.32;1.02;;;;;;;;;;4982427;28;20127;-69
2022/11/28 14:44:55;;;;;;;8.15;0.85;;;;;;;;;;5004611;28;20061;-67
2022/11/28 14:47:25;;;;;;;3.25;0.80;;;;;;;;;;5002235;28;20455;-67
2022/11/28 14:50:16;;;;;;;2.67;0.95;;;;;;;;;;5000422;28;20056;-66
2022/11/28 14:52:46;;;;;;;4.28;1.00;;;;;;;;;;4945992;28;20072;-69
2022/11/28 14:55:20;;;;;;;1.23;0.90;;;;;;;;;;5002718;28;20504;-68
2022/11/28 14:57:52;;;;;;;3.78;0.80;;;;;;;;;;5004744;28;20107;-69
2022/11/28 15:00:30;;;;;;;2.58;0.80;;;;;;;;;;5001375;28;20436;-69
2022/11/28 15:03:08;;;;;;;4.63;0.85;;;;;;;;;;5004746;28;20058;-67
2022/11/28 15:05:46;;;;;;;3.78;1.00;;;;;;;;;;5003371;28;20067;-68
2022/11/28 15:08:30;;;;;;;1.25;0.75;;;;;;;;;;5000459;28;20111;-68
2022/11/28 15:11:18;;;;;;;2.90;1.20;;;;;;;;;;5006011;28;20111;-68
2022/11/28 15:14:03;;;;;;;4.40;0.95;;;;;;;;;;5003922;28;20065;-69
2022/11/28 15:16:31;;;;;;;1.23;0.70;;;;;;;;;;5007955;28;20053;-68
2022/11/28 15:19:12;;;;;;;2.92;0.80;;;;;;;;;;5000932;28;20049;-66
2022/11/28 15:21:43;;;;;;;2.65;1.05;;;;;;;;;;4985355;28;20103;-69
2022/11/28 15:24:26;;;;;;;2.85;0.60;;;;;;;;;;5006454;28;20416;-66
2022/11/28 15:27:14;;;;;;;4.72;0.88;;;;;;;;;;5008875;28;21292;-66
2022/11/28 15:29:40;;;;;;;4.57;0.82;;;;;;;;;;4988426;28;20157;-66
2022/11/28 15:32:08;;;;;;;1.20;0.60;;;;;;;;;;4990419;28;20734;-66
2022/11/28 15:34:36;;;;;;;20.73;1.25;;;;;;;;;;5008702;28;20496;-68
2022/11/28 15:37:15;;;;;;;1.25;0.60;;;;;;;;;;5010661;28;20042;-67